createdAt,value
2022-12-22T00:01:51.843Z,4.65
2022-12-22T00:04:37.113Z,2.83
2022-12-22T00:07:22.726Z,3.28
2022-12-22T00:10:07.878Z,2.90
2022-12-22T00:12:53.294Z,3.08
2022-12-22T00:15:39.461Z,2.70
2022-12-22T00:18:27.583Z,2.90
2022-12-22T00:21:12.934Z,3.83
2022-12-22T00:23:57.992Z,3.33
2022-12-22T00:26:43.110Z,4.15
2022-12-22T00:29:33.248Z,2.80
2022-12-22T00:32:19.130Z,3.95
2022-12-22T00:35:04.332Z,2.88
2022-12-22T00:37:54.415Z,3.58
2022-12-22T00:40:42.042Z,3.65
2022-12-22T00:43:27.368Z,3.00
2022-12-22T00:46:12.780Z,3.90
2022-12-22T00:48:59.133Z,3.60
2022-12-22T00:51:44.374Z,3.67
2022-12-22T00:54:30.832Z,4.82
2022-12-22T00:57:18.464Z,4.32
2022-12-22T01:00:04.789Z,4.22
2022-12-22T01:02:50.130Z,4.13
2022-12-22T01:05:35.940Z,4.25
2022-12-22T01:08:21.448Z,4.63
2022-12-22T01:11:06.770Z,4.80
2022-12-22T01:13:52.131Z,3.60
2022-12-22T01:16:38.440Z,4.32
2022-12-22T01:19:23.941Z,3.83
2022-12-22T01:22:09.565Z,4.22
2022-12-22T01:24:54.762Z,3.00
2022-12-22T01:27:39.923Z,3.38
2022-12-22T01:30:25.811Z,4.50
2022-12-22T01:33:11.106Z,4.07
2022-12-22T01:35:56.464Z,3.60
2022-12-22T01:38:42.091Z,3.97
2022-12-22T01:41:33.748Z,4.10
2022-12-22T01:44:21.510Z,4.03
2022-12-22T01:47:06.928Z,3.38
2022-12-22T01:49:56.733Z,3.28
2022-12-22T01:52:45.992Z,4.00
2022-12-22T01:55:35.032Z,3.35
2022-12-22T01:58:20.459Z,3.78
2022-12-22T02:01:06.259Z,3.22
2022-12-22T02:03:51.467Z,3.50
2022-12-22T02:06:46.957Z,3.40
2022-12-22T02:09:47.398Z,3.42
2022-12-22T02:12:48.966Z,3.30
2022-12-22T02:15:41.927Z,3.47
2022-12-22T02:18:37.360Z,3.80
2022-12-22T02:21:29.466Z,4.20
2022-12-22T02:24:44.471Z,3.65
2022-12-22T02:27:31.135Z,4.07
2022-12-22T02:30:19.676Z,3.60
2022-12-22T02:33:09.779Z,4.68
2022-12-22T02:36:03.917Z,3.60
2022-12-22T02:38:56.211Z,4.15
2022-12-22T02:42:05.417Z,3.80
2022-12-22T02:45:12.170Z,3.25
2022-12-22T02:48:19.257Z,3.45
2022-12-22T02:51:06.072Z,3.40
2022-12-22T02:53:51.394Z,3.55
2022-12-22T02:56:36.885Z,3.25
2022-12-22T02:59:22.464Z,3.53
2022-12-22T03:02:07.759Z,4.13
2022-12-22T03:04:53.089Z,4.45
2022-12-22T03:07:38.498Z,4.47
2022-12-22T03:10:24.186Z,4.32
2022-12-22T03:13:09.652Z,4.18
2022-12-22T03:15:54.778Z,4.90
2022-12-22T03:18:39.998Z,5.57
2022-12-22T03:21:25.166Z,4.40
2022-12-22T03:24:10.449Z,5.32
2022-12-22T03:26:39.060Z,7.00
2022-12-22T03:29:05.828Z,4.18
2022-12-22T03:31:32.708Z,4.63
2022-12-22T03:33:59.434Z,5.18
2022-12-22T03:36:26.089Z,4.75
2022-12-22T03:38:52.802Z,4.82
2022-12-22T03:41:38.023Z,4.72
2022-12-22T03:44:23.148Z,4.72
2022-12-22T03:46:49.904Z,5.10
2022-12-22T03:49:16.578Z,6.68
2022-12-22T03:51:45.364Z,6.95
2022-12-22T03:54:14.924Z,5.55
2022-12-22T03:56:41.739Z,4.40
2022-12-22T03:59:08.779Z,5.78
2022-12-22T04:01:42.019Z,5.18
2022-12-22T04:04:09.152Z,6.75
2022-12-22T04:06:35.921Z,5.38
2022-12-22T04:09:03.757Z,6.90
2022-12-22T04:11:49.000Z,8.00
2022-12-22T04:14:16.088Z,8.65
2022-12-22T04:16:42.930Z,5.65
2022-12-22T04:19:10.121Z,4.90
2022-12-22T04:21:37.323Z,4.75
2022-12-22T04:24:04.215Z,8.00
2022-12-22T04:26:31.231Z,6.05
2022-12-22T04:28:58.057Z,8.35
2022-12-22T04:31:24.832Z,4.90
2022-12-22T04:33:51.855Z,5.45
2022-12-22T04:36:18.947Z,5.82
2022-12-22T04:38:45.955Z,4.63
2022-12-22T04:41:12.779Z,5.05
2022-12-22T04:43:39.582Z,7.63
2022-12-22T04:46:06.374Z,6.50
2022-12-22T04:48:35.100Z,7.13
2022-12-22T04:51:02.502Z,12.45
2022-12-22T04:53:30.140Z,8.85
2022-12-22T04:56:00.146Z,24.35
2022-12-22T04:58:26.952Z,13.68
2022-12-22T05:00:53.852Z,5.05
2022-12-22T05:03:20.932Z,9.25
2022-12-22T05:05:47.687Z,5.38
2022-12-22T05:08:14.511Z,6.18
2022-12-22T05:10:41.235Z,4.18
2022-12-22T05:13:08.010Z,6.32
2022-12-22T05:15:36.600Z,9.60
2022-12-22T05:18:03.854Z,4.32
2022-12-22T05:20:31.092Z,7.15
2022-12-22T05:22:58.778Z,8.15
2022-12-22T05:25:28.516Z,6.30
2022-12-22T05:27:58.217Z,6.07
2022-12-22T05:30:24.951Z,6.38
2022-12-22T05:32:51.749Z,7.78
2022-12-22T05:35:18.529Z,5.88
2022-12-22T05:37:45.268Z,6.90
2022-12-22T05:40:12.494Z,11.73
2022-12-22T05:42:39.681Z,9.23
2022-12-22T05:45:13.407Z,6.70
2022-12-22T05:47:40.162Z,8.00
2022-12-22T05:50:08.281Z,7.63
2022-12-22T05:52:35.270Z,7.97
2022-12-22T05:55:02.281Z,7.78
2022-12-22T05:57:29.010Z,8.10
2022-12-22T05:59:55.707Z,8.25
2022-12-22T06:02:22.553Z,9.27
2022-12-22T06:04:49.495Z,9.52
2022-12-22T06:07:16.279Z,14.82
2022-12-22T06:09:42.955Z,10.52
2022-12-22T06:12:10.083Z,15.80
2022-12-22T06:14:36.852Z,14.98
2022-12-22T06:17:03.575Z,14.82
2022-12-22T06:19:30.350Z,16.30
2022-12-22T06:21:57.028Z,16.38
2022-12-22T06:24:23.709Z,10.98
2022-12-22T06:26:50.416Z,9.85
2022-12-22T06:29:17.142Z,10.52
2022-12-22T06:31:43.914Z,6.35
2022-12-22T06:34:11.168Z,13.82
2022-12-22T06:36:38.989Z,13.80
2022-12-22T06:39:06.499Z,11.70
2022-12-22T06:41:51.976Z,10.43
2022-12-22T06:44:18.732Z,11.05
2022-12-22T06:46:45.411Z,11.93
2022-12-22T06:49:12.377Z,14.68
2022-12-22T06:51:39.086Z,11.43
2022-12-22T06:54:05.878Z,14.20
2022-12-22T06:56:32.615Z,14.23
2022-12-22T06:58:59.336Z,10.68
2022-12-22T07:01:26.195Z,9.88
2022-12-22T07:03:53.155Z,11.77
2022-12-22T07:06:19.920Z,9.48
2022-12-22T07:08:47.509Z,10.20
2022-12-22T07:11:14.944Z,10.63
2022-12-22T07:13:41.914Z,15.43
2022-12-22T07:16:09.571Z,12.88
2022-12-22T07:18:38.552Z,8.27
2022-12-22T07:21:08.669Z,7.25
2022-12-22T07:23:36.092Z,9.20
2022-12-22T07:26:03.688Z,8.57
2022-12-22T07:28:33.217Z,6.53
2022-12-22T07:31:00.065Z,8.05
2022-12-22T07:33:26.821Z,5.60
2022-12-22T07:36:08.698Z,9.55
2022-12-22T07:38:37.123Z,5.78
2022-12-22T07:41:05.448Z,5.70
2022-12-22T07:43:32.478Z,4.47
2022-12-22T07:45:59.138Z,5.80
2022-12-22T07:48:44.381Z,6.43
2022-12-22T07:51:11.089Z,6.88
2022-12-22T07:53:40.257Z,6.30
2022-12-22T07:58:33.819Z,6.60
2022-12-22T08:01:01.490Z,12.13
2022-12-22T08:03:28.626Z,5.50
2022-12-22T08:05:55.455Z,8.38
2022-12-22T08:08:22.147Z,6.80
2022-12-22T08:10:48.924Z,6.05
2022-12-22T08:13:15.747Z,6.45
2022-12-22T08:15:42.466Z,6.03
2022-12-22T08:18:09.183Z,7.10
2022-12-22T08:20:35.855Z,7.13
2022-12-22T08:23:02.574Z,6.13
2022-12-22T08:25:30.098Z,6.97
2022-12-22T08:27:57.520Z,8.93
2022-12-22T08:30:24.481Z,6.20
2022-12-22T08:32:51.522Z,6.25
2022-12-22T08:35:18.694Z,5.82
2022-12-22T08:37:46.079Z,10.70
2022-12-22T08:40:18.658Z,7.95
2022-12-22T08:42:46.430Z,6.22
2022-12-22T08:45:13.205Z,6.38
2022-12-22T08:47:39.942Z,5.15
2022-12-22T08:50:07.424Z,8.48
2022-12-22T08:52:34.094Z,7.55
2022-12-22T08:55:00.723Z,8.80
2022-12-22T08:57:27.481Z,11.10
2022-12-22T08:59:54.414Z,8.98
2022-12-22T09:02:21.266Z,10.73
2022-12-22T09:04:48.115Z,7.55
2022-12-22T09:07:14.861Z,8.45
2022-12-22T09:09:41.521Z,9.48
2022-12-22T09:12:08.529Z,7.97
2022-12-22T09:14:35.186Z,8.70
2022-12-22T09:17:01.882Z,16.30
2022-12-22T09:19:28.750Z,16.45
2022-12-22T09:21:55.599Z,18.00
2022-12-22T09:24:22.291Z,14.10
2022-12-22T09:26:49.037Z,14.45
2022-12-22T09:29:16.017Z,13.73
2022-12-22T09:31:43.527Z,11.10
2022-12-22T09:34:16.807Z,12.48
2022-12-22T09:36:44.706Z,13.27
2022-12-22T09:39:11.457Z,9.45
2022-12-22T09:41:52.773Z,9.02
2022-12-22T09:44:34.002Z,8.52
2022-12-22T09:47:02.531Z,8.68
2022-12-22T09:49:29.474Z,8.48
2022-12-22T09:52:01.761Z,9.48
2022-12-22T09:54:29.979Z,9.07
2022-12-22T09:56:58.297Z,8.65
2022-12-22T09:59:27.917Z,7.07
2022-12-22T10:02:04.435Z,9.02
2022-12-22T10:04:56.017Z,8.73
2022-12-22T10:07:26.002Z,9.35
2022-12-22T10:09:52.752Z,9.13
2022-12-22T10:12:22.065Z,12.70
2022-12-22T10:14:50.797Z,11.07
2022-12-22T10:17:22.050Z,11.15
2022-12-22T10:19:50.587Z,8.98
2022-12-22T10:22:30.049Z,8.68
2022-12-22T10:24:57.337Z,8.65
2022-12-22T10:27:28.971Z,9.05
2022-12-22T10:30:20.051Z,8.35
2022-12-22T10:33:11.874Z,8.88
2022-12-22T10:35:58.030Z,10.10
2022-12-22T10:38:33.911Z,9.45
2022-12-22T10:41:13.580Z,10.55
2022-12-22T10:43:58.094Z,9.50
2022-12-22T10:46:35.999Z,8.32
2022-12-22T10:49:20.888Z,8.40
2022-12-22T10:51:53.357Z,9.32
2022-12-22T10:54:36.186Z,6.05
2022-12-22T10:57:26.182Z,5.70
2022-12-22T10:59:56.825Z,4.88
2022-12-22T11:02:35.662Z,6.38
2022-12-22T11:05:04.263Z,5.75
2022-12-22T11:07:33.422Z,6.28
2022-12-22T11:12:48.893Z,6.28
2022-12-22T11:15:23.987Z,5.50
2022-12-22T11:18:19.253Z,5.95
2022-12-22T11:20:58.053Z,4.72
2022-12-22T11:23:31.628Z,6.05
2022-12-22T11:26:07.872Z,4.72
2022-12-22T11:28:43.556Z,4.15
2022-12-22T11:31:52.198Z,5.30
2022-12-22T11:34:28.518Z,3.95
2022-12-22T11:37:17.007Z,4.30
2022-12-22T11:39:57.513Z,5.53
2022-12-22T11:42:25.998Z,4.47
2022-12-22T11:45:30.179Z,3.90
2022-12-22T11:48:07.052Z,3.55
2022-12-22T11:51:01.207Z,3.40
2022-12-22T11:54:05.401Z,3.28
2022-12-22T11:56:45.468Z,3.67
2022-12-22T11:59:18.191Z,4.25
2022-12-22T12:02:33.960Z,3.05
2022-12-22T12:05:23.276Z,3.60
2022-12-22T12:08:08.749Z,3.72
2022-12-22T12:10:46.105Z,4.07
2022-12-22T12:13:12.703Z,4.03
2022-12-22T12:15:47.464Z,3.58
2022-12-22T12:18:32.825Z,3.45
2022-12-22T12:21:09.147Z,3.08
2022-12-22T12:23:47.747Z,3.10
2022-12-22T12:26:22.724Z,3.83
2022-12-22T12:29:11.984Z,3.53
2022-12-22T12:31:42.794Z,4.70
2022-12-22T12:34:15.215Z,4.20
2022-12-22T12:36:57.508Z,4.05
2022-12-22T12:39:41.539Z,4.90
2022-12-22T12:42:38.193Z,4.30
2022-12-22T12:45:33.404Z,3.72
2022-12-22T12:48:24.826Z,3.58
2022-12-22T12:50:54.184Z,4.35
2022-12-22T12:53:25.402Z,3.97
2022-12-22T12:55:53.793Z,4.35
2022-12-22T12:58:35.804Z,5.10
2022-12-22T13:01:08.875Z,4.78
2022-12-22T13:06:49.994Z,3.92
2022-12-22T13:12:38.344Z,4.32
2022-12-22T13:15:27.814Z,3.92
2022-12-22T13:17:54.569Z,3.58
2022-12-22T13:20:25.871Z,4.53
2022-12-22T13:22:53.932Z,4.88
2022-12-22T13:25:21.409Z,4.35
2022-12-22T13:27:49.076Z,4.88
2022-12-22T13:30:18.045Z,5.03
2022-12-22T13:32:46.469Z,4.35
2022-12-22T13:35:31.083Z,4.80
2022-12-22T13:37:59.059Z,4.00
2022-12-22T13:40:28.457Z,5.13
2022-12-22T13:42:56.073Z,4.45
2022-12-22T13:45:31.716Z,5.15
2022-12-22T13:48:01.000Z,5.72
2022-12-22T13:50:37.894Z,4.63
2022-12-22T13:53:07.619Z,4.70
2022-12-22T13:55:34.409Z,5.32
2022-12-22T13:58:09.593Z,5.28
2022-12-22T14:00:36.467Z,4.75
2022-12-22T14:03:04.917Z,4.95
2022-12-22T14:05:34.337Z,4.93
2022-12-22T14:08:06.400Z,5.40
2022-12-22T14:10:40.031Z,4.82
2022-12-22T14:13:12.707Z,4.97
2022-12-22T14:15:39.411Z,5.35
2022-12-22T14:18:06.166Z,5.88
2022-12-22T14:20:36.569Z,8.32
2022-12-22T14:23:14.031Z,5.05
2022-12-22T14:25:42.595Z,4.95
2022-12-22T14:28:19.914Z,5.75
2022-12-22T14:30:49.146Z,6.38
2022-12-22T14:35:43.916Z,7.90
2022-12-22T14:38:21.109Z,7.00
2022-12-22T14:40:54.448Z,6.85
2022-12-22T14:43:29.503Z,6.07
2022-12-22T14:46:07.363Z,7.05
2022-12-22T14:48:40.588Z,9.63
2022-12-22T14:51:07.753Z,10.27
2022-12-22T14:54:04.012Z,8.20
2022-12-22T14:56:30.811Z,8.73
2022-12-22T14:59:11.917Z,7.80
2022-12-22T15:01:38.778Z,13.73
2022-12-22T15:04:15.331Z,8.45
2022-12-22T15:06:44.719Z,8.07
2022-12-22T15:12:05.083Z,7.07
2022-12-22T15:14:38.617Z,11.32
2022-12-22T15:17:07.947Z,22.73
2022-12-22T15:19:36.032Z,12.30
2022-12-22T15:22:03.107Z,11.55
2022-12-22T15:24:29.948Z,9.13
2022-12-22T15:26:56.719Z,10.77
2022-12-22T15:29:23.508Z,6.88
2022-12-22T15:31:50.307Z,8.98
2022-12-22T15:34:28.868Z,12.25
2022-12-22T15:36:55.777Z,11.30
2022-12-22T15:39:23.403Z,12.15
2022-12-22T15:41:50.495Z,14.13
2022-12-22T15:44:17.328Z,22.65
2022-12-22T15:46:45.831Z,13.13
2022-12-22T15:49:18.387Z,11.68
2022-12-22T15:51:45.789Z,15.93
2022-12-22T15:54:14.334Z,13.27
2022-12-22T15:56:41.705Z,15.88
2022-12-22T15:59:25.739Z,31.25
2022-12-22T16:02:00.412Z,10.27
2022-12-22T16:04:28.531Z,16.52
2022-12-22T16:06:55.765Z,11.30
2022-12-22T16:09:25.576Z,11.27
2022-12-22T16:11:52.524Z,9.20
2022-12-22T16:14:21.470Z,9.25
2022-12-22T16:16:48.545Z,10.40
2022-12-22T16:19:16.890Z,18.38
2022-12-22T16:21:45.809Z,21.05
2022-12-22T16:24:27.751Z,17.33
2022-12-22T16:26:56.984Z,26.42
2022-12-22T16:29:25.076Z,21.20
2022-12-22T16:31:52.101Z,24.70
2022-12-22T16:34:19.003Z,23.48
2022-12-22T16:36:45.731Z,36.65
2022-12-22T16:39:12.414Z,19.05
2022-12-22T16:41:39.301Z,34.10
2022-12-22T16:44:08.705Z,48.28
2022-12-22T16:49:02.677Z,30.88
2022-12-22T16:51:34.131Z,48.53
2022-12-22T16:54:01.796Z,51.67
2022-12-22T16:56:30.970Z,36.15
2022-12-22T16:58:58.358Z,28.02
2022-12-22T17:01:33.135Z,28.15
2022-12-22T17:04:08.012Z,10.93
2022-12-22T17:06:35.228Z,18.00
2022-12-22T17:09:03.609Z,19.88
2022-12-22T17:11:32.623Z,18.98
2022-12-22T17:14:17.003Z,16.02
2022-12-22T17:16:43.692Z,27.70
2022-12-22T17:19:11.464Z,29.25
2022-12-22T17:21:38.559Z,17.15
2022-12-22T17:24:05.527Z,26.88
2022-12-22T17:26:33.752Z,27.65
2022-12-22T17:29:00.685Z,21.38
2022-12-22T17:31:27.426Z,28.30
2022-12-22T17:33:54.151Z,24.02
2022-12-22T17:36:41.082Z,34.95
2022-12-22T17:39:13.380Z,30.80
2022-12-22T17:41:40.460Z,30.80
2022-12-22T17:44:18.174Z,25.42
2022-12-22T17:46:44.943Z,21.40
2022-12-22T17:49:13.294Z,20.27
2022-12-22T17:51:41.249Z,25.35
2022-12-22T17:54:37.497Z,34.10
2022-12-22T17:57:04.546Z,21.58
2022-12-22T17:59:31.253Z,15.95
2022-12-22T18:01:58.026Z,18.13
2022-12-22T18:04:24.853Z,17.90
2022-12-22T18:06:51.620Z,31.27
2022-12-22T18:09:23.832Z,17.95
2022-12-22T18:11:50.976Z,18.15
2022-12-22T18:14:18.827Z,15.13
2022-12-22T18:16:45.634Z,23.17
2022-12-22T18:19:12.322Z,22.42
2022-12-22T18:21:39.165Z,20.85
2022-12-22T18:24:06.381Z,19.38
2022-12-22T18:26:33.133Z,17.73
2022-12-22T18:29:00.029Z,27.90
2022-12-22T18:31:26.841Z,15.25
2022-12-22T18:33:53.539Z,17.50
2022-12-22T18:36:22.519Z,21.75
2022-12-22T18:38:49.595Z,17.40
2022-12-22T18:41:20.795Z,19.80
2022-12-22T18:43:47.806Z,20.58
2022-12-22T18:46:14.585Z,18.65
2022-12-22T18:48:41.601Z,24.30
2022-12-22T18:51:17.615Z,23.75
2022-12-22T18:53:44.526Z,24.48
2022-12-22T18:56:12.822Z,27.13
2022-12-22T18:58:40.260Z,30.52
2022-12-22T19:01:10.921Z,23.25
2022-12-22T19:03:37.671Z,35.20
2022-12-22T19:06:04.606Z,35.63
2022-12-22T19:08:31.510Z,34.05
2022-12-22T19:11:00.080Z,35.78
2022-12-22T19:13:28.476Z,38.15
2022-12-22T19:15:55.937Z,36.78
2022-12-22T19:18:27.011Z,35.92
2022-12-22T19:20:54.963Z,36.42
2022-12-22T19:23:23.028Z,38.80
2022-12-22T19:26:18.770Z,39.78
2022-12-22T19:28:45.583Z,39.30
2022-12-22T19:31:24.614Z,36.42
2022-12-22T19:33:51.658Z,34.40
2022-12-22T19:36:29.881Z,32.88
2022-12-22T19:39:03.919Z,33.60
2022-12-22T19:42:06.470Z,38.25
2022-12-22T19:44:33.182Z,31.10
2022-12-22T19:47:02.002Z,32.58
2022-12-22T19:49:29.315Z,31.55
2022-12-22T19:51:56.870Z,33.10
2022-12-22T19:54:23.560Z,30.92
2022-12-22T19:56:53.551Z,41.50
2022-12-22T19:59:39.679Z,39.25
2022-12-22T20:02:28.095Z,38.90
2022-12-22T20:04:55.680Z,52.85
2022-12-22T20:07:23.994Z,48.25
2022-12-22T20:09:51.139Z,57.25
2022-12-22T20:12:25.285Z,54.67
2022-12-22T20:14:52.562Z,50.38
2022-12-22T20:17:19.533Z,60.33
2022-12-22T20:19:46.228Z,54.97
2022-12-22T20:22:17.261Z,60.78
2022-12-22T20:24:45.104Z,53.13
2022-12-22T20:27:22.767Z,54.83
2022-12-22T20:29:49.426Z,54.75
2022-12-22T20:32:19.642Z,45.90
2022-12-22T20:34:49.129Z,43.03
2022-12-22T20:37:16.603Z,47.15
2022-12-22T20:39:43.816Z,42.78
2022-12-22T20:42:22.057Z,38.38
2022-12-22T20:45:01.658Z,40.08
2022-12-22T20:47:32.233Z,40.95
2022-12-22T20:49:59.376Z,43.20
2022-12-22T20:52:26.480Z,43.05
2022-12-22T20:54:53.241Z,43.90
2022-12-22T20:57:21.769Z,41.42
2022-12-22T20:59:53.984Z,39.97
2022-12-22T21:02:24.445Z,41.67
2022-12-22T21:04:51.351Z,41.35
2022-12-22T21:07:18.012Z,47.03
2022-12-22T21:09:44.720Z,48.58
2022-12-22T21:12:11.487Z,49.90
2022-12-22T21:14:38.154Z,56.72
2022-12-22T21:17:05.061Z,60.40
2022-12-22T21:19:31.720Z,53.85
2022-12-22T21:21:58.420Z,56.00
2022-12-22T21:24:25.071Z,52.72
2022-12-22T21:26:53.570Z,53.50
2022-12-22T21:29:22.919Z,51.45
2022-12-22T21:31:50.038Z,55.50
2022-12-22T21:34:16.949Z,54.15
2022-12-22T21:36:46.575Z,55.92
2022-12-22T21:39:26.840Z,55.65
2022-12-22T21:42:04.562Z,58.05
2022-12-22T21:44:33.517Z,54.13
2022-12-22T21:47:00.546Z,63.88
2022-12-22T21:49:29.965Z,53.83
2022-12-22T21:51:56.699Z,51.40
2022-12-22T21:54:24.937Z,46.53
2022-12-22T21:56:52.457Z,48.70
2022-12-22T21:59:19.481Z,46.72
2022-12-22T22:01:46.674Z,51.70
2022-12-22T22:04:13.997Z,47.03
2022-12-22T22:06:40.682Z,45.17
2022-12-22T22:09:07.574Z,43.35
2022-12-22T22:11:54.796Z,40.58
2022-12-22T22:14:21.683Z,39.80
2022-12-22T22:16:48.571Z,40.50
2022-12-22T22:19:15.316Z,40.72
2022-12-22T22:21:42.031Z,42.60
2022-12-22T22:24:08.697Z,43.45
2022-12-22T22:26:35.332Z,42.25
2022-12-22T22:29:02.040Z,43.67
2022-12-22T22:31:28.741Z,41.92
2022-12-22T22:33:55.483Z,41.42
2022-12-22T22:36:22.224Z,37.92
2022-12-22T22:38:52.034Z,37.38
2022-12-22T22:41:18.737Z,42.80
2022-12-22T22:43:45.455Z,37.88
2022-12-22T22:46:12.138Z,37.40
2022-12-22T22:48:38.887Z,38.05
2022-12-22T22:51:09.997Z,39.13
2022-12-22T22:53:36.698Z,35.95
2022-12-22T22:56:03.565Z,37.35
2022-12-22T22:58:30.496Z,37.22
2022-12-22T23:01:06.950Z,37.58
2022-12-22T23:03:33.750Z,38.33
2022-12-22T23:06:05.067Z,36.70
2022-12-22T23:08:33.519Z,36.42
2022-12-22T23:11:01.559Z,36.65
2022-12-22T23:13:28.840Z,36.25
2022-12-22T23:16:03.458Z,35.55
2022-12-22T23:18:31.564Z,36.28
2022-12-22T23:20:59.750Z,36.30
2022-12-22T23:23:26.461Z,37.83
2022-12-22T23:25:53.136Z,36.38
2022-12-22T23:28:19.942Z,37.45
2022-12-22T23:30:49.720Z,34.88
2022-12-22T23:33:17.150Z,34.38
2022-12-22T23:35:46.478Z,35.97
2022-12-22T23:38:13.613Z,37.75
2022-12-22T23:40:56.225Z,38.20
2022-12-22T23:43:22.969Z,38.05
2022-12-22T23:45:49.719Z,38.55
2022-12-22T23:48:16.471Z,36.50
2022-12-22T23:50:46.428Z,36.38
2022-12-22T23:53:13.650Z,37.00
2022-12-22T23:55:47.488Z,37.95
2022-12-22T23:58:15.192Z,37.85
